sensor_id;sensor_type;location;lat;lon;timestamp;temperature;humidity
18240;DHT22;9244;50.828;4.718;2022-07-29T00:00:39;18.20;99.90
18240;DHT22;9244;50.828;4.718;2022-07-29T00:03:04;18.20;99.90
18240;DHT22;9244;50.828;4.718;2022-07-29T00:05:30;18.20;99.90
18240;DHT22;9244;50.828;4.718;2022-07-29T00:07:56;18.20;99.90
18240;DHT22;9244;50.828;4.718;2022-07-29T00:10:21;18.30;99.90
18240;DHT22;9244;50.828;4.718;2022-07-29T00:12:47;18.20;99.90
18240;DHT22;9244;50.828;4.718;2022-07-29T00:15:13;18.20;99.90
18240;DHT22;9244;50.828;4.718;2022-07-29T00:17:39;18.20;99.90
18240;DHT22;9244;50.828;4.718;2022-07-29T00:20:05;18.10;99.90
18240;DHT22;9244;50.828;4.718;2022-07-29T00:22:31;18.10;99.90
18240;DHT22;9244;50.828;4.718;2022-07-29T00:24:57;18.00;99.90
18240;DHT22;9244;50.828;4.718;2022-07-29T00:27:22;18.00;99.90
18240;DHT22;9244;50.828;4.718;2022-07-29T00:29:48;17.90;99.90
18240;DHT22;9244;50.828;4.718;2022-07-29T00:32:13;17.90;99.90
18240;DHT22;9244;50.828;4.718;2022-07-29T00:34:39;17.90;99.90
18240;DHT22;9244;50.828;4.718;2022-07-29T00:37:24;17.80;99.90
18240;DHT22;9244;50.828;4.718;2022-07-29T00:39:49;17.70;99.90
18240;DHT22;9244;50.828;4.718;2022-07-29T00:42:15;17.60;99.90
18240;DHT22;9244;50.828;4.718;2022-07-29T00:44:42;17.60;99.90
18240;DHT22;9244;50.828;4.718;2022-07-29T00:47:09;17.60;99.90
18240;DHT22;9244;50.828;4.718;2022-07-29T00:49:35;17.50;99.90
18240;DHT22;9244;50.828;4.718;2022-07-29T00:52:06;17.50;99.90
18240;DHT22;9244;50.828;4.718;2022-07-29T00:54:33;17.50;99.90
18240;DHT22;9244;50.828;4.718;2022-07-29T00:57:00;17.60;99.90
18240;DHT22;9244;50.828;4.718;2022-07-29T00:59:26;17.50;99.90
18240;DHT22;9244;50.828;4.718;2022-07-29T01:01:53;17.50;99.90
18240;DHT22;9244;50.828;4.718;2022-07-29T01:04:20;17.40;99.90
18240;DHT22;9244;50.828;4.718;2022-07-29T01:06:47;17.40;99.90
18240;DHT22;9244;50.828;4.718;2022-07-29T01:09:14;17.40;99.90
18240;DHT22;9244;50.828;4.718;2022-07-29T01:11:40;17.40;99.90
18240;DHT22;9244;50.828;4.718;2022-07-29T01:14:07;17.40;99.90
18240;DHT22;9244;50.828;4.718;2022-07-29T01:17:13;17.40;99.90
18240;DHT22;9244;50.828;4.718;2022-07-29T01:19:46;17.40;99.90
18240;DHT22;9244;50.828;4.718;2022-07-29T01:22:31;17.20;99.90
18240;DHT22;9244;50.828;4.718;2022-07-29T01:30:22;17.20;99.90
18240;DHT22;9244;50.828;4.718;2022-07-29T01:32:56;17.20;99.90
18240;DHT22;9244;50.828;4.718;2022-07-29T01:35:26;17.10;99.90
18240;DHT22;9244;50.828;4.718;2022-07-29T01:38:10;17.10;99.90
18240;DHT22;9244;50.828;4.718;2022-07-29T01:40:45;17.00;99.90
18240;DHT22;9244;50.828;4.718;2022-07-29T01:43:18;16.80;99.90
18240;DHT22;9244;50.828;4.718;2022-07-29T01:45:50;16.70;99.90
18240;DHT22;9244;50.828;4.718;2022-07-29T01:48:22;16.60;99.90
18240;DHT22;9244;50.828;4.718;2022-07-29T01:50:52;16.50;99.90
18240;DHT22;9244;50.828;4.718;2022-07-29T01:53:25;16.50;99.90
18240;DHT22;9244;50.828;4.718;2022-07-29T01:55:53;16.40;99.90
18240;DHT22;9244;50.828;4.718;2022-07-29T01:58:20;16.40;99.90
18240;DHT22;9244;50.828;4.718;2022-07-29T02:00:48;16.40;99.90
18240;DHT22;9244;50.828;4.718;2022-07-29T02:03:15;16.50;99.90
18240;DHT22;9244;50.828;4.718;2022-07-29T02:05:45;16.40;99.90
18240;DHT22;9244;50.828;4.718;2022-07-29T02:08:13;16.40;99.90
18240;DHT22;9244;50.828;4.718;2022-07-29T02:10:42;16.40;99.90
18240;DHT22;9244;50.828;4.718;2022-07-29T02:13:09;16.40;99.90
18240;DHT22;9244;50.828;4.718;2022-07-29T02:15:37;16.40;99.90
18240;DHT22;9244;50.828;4.718;2022-07-29T02:18:09;16.40;99.90
18240;DHT22;9244;50.828;4.718;2022-07-29T02:20:37;16.50;99.90
18240;DHT22;9244;50.828;4.718;2022-07-29T02:23:03;16.50;99.90
18240;DHT22;9244;50.828;4.718;2022-07-29T02:25:30;16.40;99.90
18240;DHT22;9244;50.828;4.718;2022-07-29T02:27:57;16.50;99.90
18240;DHT22;9244;50.828;4.718;2022-07-29T02:30:25;16.60;99.90
18240;DHT22;9244;50.828;4.718;2022-07-29T02:32:52;16.60;99.90
18240;DHT22;9244;50.828;4.718;2022-07-29T02:35:20;16.60;99.90
18240;DHT22;9244;50.828;4.718;2022-07-29T02:37:47;16.50;99.90
18240;DHT22;9244;50.828;4.718;2022-07-29T02:40:38;16.50;99.90
18240;DHT22;9244;50.828;4.718;2022-07-29T02:43:06;16.40;99.90
18240;DHT22;9244;50.828;4.718;2022-07-29T02:45:32;16.50;99.90
18240;DHT22;9244;50.828;4.718;2022-07-29T02:48:01;16.50;99.90
18240;DHT22;9244;50.828;4.718;2022-07-29T02:50:34;16.50;99.90
18240;DHT22;9244;50.828;4.718;2022-07-29T02:53:07;16.50;99.90
18240;DHT22;9244;50.828;4.718;2022-07-29T02:55:56;16.50;99.90
18240;DHT22;9244;50.828;4.718;2022-07-29T02:58:28;16.40;99.90
18240;DHT22;9244;50.828;4.718;2022-07-29T03:01:01;16.30;99.90
18240;DHT22;9244;50.828;4.718;2022-07-29T03:03:31;16.10;99.90
18240;DHT22;9244;50.828;4.718;2022-07-29T03:06:00;16.10;99.90
18240;DHT22;9244;50.828;4.718;2022-07-29T03:08:27;16.00;99.90
18240;DHT22;9244;50.828;4.718;2022-07-29T03:10:53;15.80;99.90
18240;DHT22;9244;50.828;4.718;2022-07-29T03:13:19;15.70;99.90
18240;DHT22;9244;50.828;4.718;2022-07-29T03:15:46;15.60;99.90
18240;DHT22;9244;50.828;4.718;2022-07-29T03:18:13;15.60;99.90
18240;DHT22;9244;50.828;4.718;2022-07-29T03:20:40;15.40;99.90
18240;DHT22;9244;50.828;4.718;2022-07-29T03:23:06;15.40;99.90
18240;DHT22;9244;50.828;4.718;2022-07-29T03:25:33;15.30;99.90
18240;DHT22;9244;50.828;4.718;2022-07-29T03:27:59;15.30;99.90
18240;DHT22;9244;50.828;4.718;2022-07-29T03:30:24;15.20;99.90
18240;DHT22;9244;50.828;4.718;2022-07-29T03:32:51;15.10;99.90
18240;DHT22;9244;50.828;4.718;2022-07-29T03:35:17;15.10;99.90
18240;DHT22;9244;50.828;4.718;2022-07-29T03:37:44;15.00;99.90
18240;DHT22;9244;50.828;4.718;2022-07-29T03:40:16;14.90;99.90
18240;DHT22;9244;50.828;4.718;2022-07-29T03:42:43;14.90;99.90
18240;DHT22;9244;50.828;4.718;2022-07-29T03:45:13;14.80;99.90
18240;DHT22;9244;50.828;4.718;2022-07-29T03:47:47;14.90;99.90
18240;DHT22;9244;50.828;4.718;2022-07-29T03:50:15;14.70;99.90
18240;DHT22;9244;50.828;4.718;2022-07-29T03:52:41;14.60;99.90
18240;DHT22;9244;50.828;4.718;2022-07-29T03:55:08;14.70;99.90
18240;DHT22;9244;50.828;4.718;2022-07-29T03:57:35;14.70;99.90
18240;DHT22;9244;50.828;4.718;2022-07-29T04:00:03;14.60;99.90
18240;DHT22;9244;50.828;4.718;2022-07-29T04:02:30;14.60;99.90
18240;DHT22;9244;50.828;4.718;2022-07-29T04:04:57;14.50;99.90
18240;DHT22;9244;50.828;4.718;2022-07-29T04:07:23;14.40;99.90
18240;DHT22;9244;50.828;4.718;2022-07-29T04:09:48;14.40;99.90
18240;DHT22;9244;50.828;4.718;2022-07-29T04:12:14;14.40;99.90
18240;DHT22;9244;50.828;4.718;2022-07-29T04:14:39;14.40;99.90
18240;DHT22;9244;50.828;4.718;2022-07-29T04:17:05;14.30;99.90
18240;DHT22;9244;50.828;4.718;2022-07-29T04:19:31;14.20;99.90
18240;DHT22;9244;50.828;4.718;2022-07-29T04:21:58;14.10;99.90
18240;DHT22;9244;50.828;4.718;2022-07-29T04:24:24;14.10;99.90
18240;DHT22;9244;50.828;4.718;2022-07-29T04:26:50;14.10;99.90
18240;DHT22;9244;50.828;4.718;2022-07-29T04:29:15;14.10;99.90
18240;DHT22;9244;50.828;4.718;2022-07-29T04:31:41;14.10;99.90
18240;DHT22;9244;50.828;4.718;2022-07-29T04:34:07;14.20;99.90
18240;DHT22;9244;50.828;4.718;2022-07-29T04:36:34;14.30;99.90
18240;DHT22;9244;50.828;4.718;2022-07-29T04:39:00;14.20;99.90
18240;DHT22;9244;50.828;4.718;2022-07-29T04:41:27;14.30;99.90
18240;DHT22;9244;50.828;4.718;2022-07-29T04:43:52;14.30;99.90
18240;DHT22;9244;50.828;4.718;2022-07-29T04:46:18;14.20;99.90
18240;DHT22;9244;50.828;4.718;2022-07-29T04:48:45;14.20;99.90
18240;DHT22;9244;50.828;4.718;2022-07-29T04:51:12;14.30;99.90
18240;DHT22;9244;50.828;4.718;2022-07-29T04:53:37;14.40;99.90
18240;DHT22;9244;50.828;4.718;2022-07-29T04:56:03;14.40;99.90
18240;DHT22;9244;50.828;4.718;2022-07-29T04:58:29;14.50;99.90
18240;DHT22;9244;50.828;4.718;2022-07-29T05:00:54;14.50;99.90
18240;DHT22;9244;50.828;4.718;2022-07-29T05:03:20;14.50;99.90
18240;DHT22;9244;50.828;4.718;2022-07-29T05:05:46;14.60;99.90
18240;DHT22;9244;50.828;4.718;2022-07-29T05:08:11;14.60;99.90
18240;DHT22;9244;50.828;4.718;2022-07-29T05:10:37;14.60;99.90
18240;DHT22;9244;50.828;4.718;2022-07-29T05:13:07;14.60;99.90
18240;DHT22;9244;50.828;4.718;2022-07-29T05:15:36;14.80;99.90
18240;DHT22;9244;50.828;4.718;2022-07-29T05:18:02;14.80;99.90
18240;DHT22;9244;50.828;4.718;2022-07-29T05:20:29;14.90;99.90
18240;DHT22;9244;50.828;4.718;2022-07-29T05:22:56;15.10;99.90
18240;DHT22;9244;50.828;4.718;2022-07-29T05:25:23;15.20;99.90
18240;DHT22;9244;50.828;4.718;2022-07-29T05:27:48;15.60;99.90
18240;DHT22;9244;50.828;4.718;2022-07-29T05:30:14;16.20;99.90
18240;DHT22;9244;50.828;4.718;2022-07-29T05:32:40;16.80;99.90
18240;DHT22;9244;50.828;4.718;2022-07-29T05:35:06;17.50;99.90
18240;DHT22;9244;50.828;4.718;2022-07-29T05:37:32;18.50;99.90
18240;DHT22;9244;50.828;4.718;2022-07-29T05:39:58;19.60;99.90
18240;DHT22;9244;50.828;4.718;2022-07-29T05:42:25;20.20;99.90
18240;DHT22;9244;50.828;4.718;2022-07-29T05:44:50;20.60;99.90
18240;DHT22;9244;50.828;4.718;2022-07-29T05:47:16;21.30;99.90
18240;DHT22;9244;50.828;4.718;2022-07-29T05:49:42;21.80;99.90
18240;DHT22;9244;50.828;4.718;2022-07-29T05:52:08;22.30;99.90
18240;DHT22;9244;50.828;4.718;2022-07-29T05:54:34;22.70;99.90
18240;DHT22;9244;50.828;4.718;2022-07-29T05:57:00;23.50;99.90
18240;DHT22;9244;50.828;4.718;2022-07-29T05:59:26;24.00;99.90
18240;DHT22;9244;50.828;4.718;2022-07-29T06:01:52;23.10;99.90
18240;DHT22;9244;50.828;4.718;2022-07-29T06:04:17;24.30;99.90
18240;DHT22;9244;50.828;4.718;2022-07-29T06:06:43;23.80;99.90
18240;DHT22;9244;50.828;4.718;2022-07-29T06:09:09;23.10;99.90
18240;DHT22;9244;50.828;4.718;2022-07-29T06:11:34;22.30;99.90
18240;DHT22;9244;50.828;4.718;2022-07-29T06:14:00;22.50;99.90
18240;DHT22;9244;50.828;4.718;2022-07-29T06:16:25;23.30;99.90
18240;DHT22;9244;50.828;4.718;2022-07-29T06:18:51;23.60;99.90
18240;DHT22;9244;50.828;4.718;2022-07-29T06:21:17;24.60;99.90
18240;DHT22;9244;50.828;4.718;2022-07-29T06:23:44;24.80;99.90
18240;DHT22;9244;50.828;4.718;2022-07-29T06:26:10;24.60;99.90
18240;DHT22;9244;50.828;4.718;2022-07-29T06:28:36;25.30;99.90
18240;DHT22;9244;50.828;4.718;2022-07-29T06:31:02;25.10;99.90
18240;DHT22;9244;50.828;4.718;2022-07-29T06:33:27;25.80;99.90
18240;DHT22;9244;50.828;4.718;2022-07-29T06:35:53;26.00;99.90
18240;DHT22;9244;50.828;4.718;2022-07-29T06:38:19;26.30;99.90
18240;DHT22;9244;50.828;4.718;2022-07-29T06:40:45;25.60;99.90
18240;DHT22;9244;50.828;4.718;2022-07-29T06:43:34;25.80;99.90
18240;DHT22;9244;50.828;4.718;2022-07-29T06:46:02;26.00;99.90
18240;DHT22;9244;50.828;4.718;2022-07-29T06:48:28;25.60;99.90
18240;DHT22;9244;50.828;4.718;2022-07-29T06:50:54;26.10;99.90
18240;DHT22;9244;50.828;4.718;2022-07-29T06:53:20;26.40;99.90
18240;DHT22;9244;50.828;4.718;2022-07-29T06:55:46;26.80;99.90
18240;DHT22;9244;50.828;4.718;2022-07-29T06:58:11;26.40;99.90
18240;DHT22;9244;50.828;4.718;2022-07-29T07:00:39;27.00;99.90
18240;DHT22;9244;50.828;4.718;2022-07-29T07:03:05;27.30;99.90
18240;DHT22;9244;50.828;4.718;2022-07-29T07:05:31;27.40;99.90
18240;DHT22;9244;50.828;4.718;2022-07-29T07:07:57;27.10;99.90
18240;DHT22;9244;50.828;4.718;2022-07-29T07:10:22;27.00;99.90
18240;DHT22;9244;50.828;4.718;2022-07-29T07:12:48;27.40;99.90
18240;DHT22;9244;50.828;4.718;2022-07-29T07:15:14;27.00;99.90
18240;DHT22;9244;50.828;4.718;2022-07-29T07:17:39;27.00;99.90
18240;DHT22;9244;50.828;4.718;2022-07-29T07:20:05;26.80;99.90
18240;DHT22;9244;50.828;4.718;2022-07-29T07:22:31;27.70;99.90
18240;DHT22;9244;50.828;4.718;2022-07-29T07:24:57;27.80;99.90
18240;DHT22;9244;50.828;4.718;2022-07-29T07:27:22;27.40;99.90
18240;DHT22;9244;50.828;4.718;2022-07-29T07:29:48;28.00;99.90
18240;DHT22;9244;50.828;4.718;2022-07-29T07:32:14;28.30;99.90
18240;DHT22;9244;50.828;4.718;2022-07-29T07:34:42;28.40;99.90
18240;DHT22;9244;50.828;4.718;2022-07-29T07:37:08;27.60;99.90
18240;DHT22;9244;50.828;4.718;2022-07-29T07:39:34;27.10;99.90
18240;DHT22;9244;50.828;4.718;2022-07-29T07:41:59;27.30;99.90
18240;DHT22;9244;50.828;4.718;2022-07-29T07:44:25;26.80;99.90
18240;DHT22;9244;50.828;4.718;2022-07-29T07:46:51;27.00;99.90
18240;DHT22;9244;50.828;4.718;2022-07-29T07:49:17;27.40;99.90
18240;DHT22;9244;50.828;4.718;2022-07-29T07:51:43;27.10;99.90
18240;DHT22;9244;50.828;4.718;2022-07-29T07:54:08;27.40;99.90
18240;DHT22;9244;50.828;4.718;2022-07-29T07:56:34;28.00;99.90
18240;DHT22;9244;50.828;4.718;2022-07-29T07:58:59;27.10;99.90
18240;DHT22;9244;50.828;4.718;2022-07-29T08:01:25;28.10;99.90
18240;DHT22;9244;50.828;4.718;2022-07-29T08:03:51;28.90;99.90
18240;DHT22;9244;50.828;4.718;2022-07-29T08:06:16;28.50;99.90
18240;DHT22;9244;50.828;4.718;2022-07-29T08:08:42;28.80;99.90
18240;DHT22;9244;50.828;4.718;2022-07-29T08:11:07;28.20;99.90
18240;DHT22;9244;50.828;4.718;2022-07-29T08:13:33;27.70;99.90
18240;DHT22;9244;50.828;4.718;2022-07-29T08:15:59;28.10;99.90
18240;DHT22;9244;50.828;4.718;2022-07-29T08:18:31;27.50;99.90
18240;DHT22;9244;50.828;4.718;2022-07-29T08:20:57;28.00;99.90
18240;DHT22;9244;50.828;4.718;2022-07-29T08:23:23;28.00;99.90
18240;DHT22;9244;50.828;4.718;2022-07-29T08:25:49;27.80;99.90
18240;DHT22;9244;50.828;4.718;2022-07-29T08:28:16;27.00;99.90
18240;DHT22;9244;50.828;4.718;2022-07-29T08:30:42;27.20;99.90
18240;DHT22;9244;50.828;4.718;2022-07-29T08:33:07;27.50;99.90
18240;DHT22;9244;50.828;4.718;2022-07-29T08:35:33;27.60;99.90
18240;DHT22;9244;50.828;4.718;2022-07-29T08:37:58;27.80;99.90
18240;DHT22;9244;50.828;4.718;2022-07-29T08:40:24;27.90;99.90
18240;DHT22;9244;50.828;4.718;2022-07-29T08:42:50;27.50;99.90
18240;DHT22;9244;50.828;4.718;2022-07-29T08:45:16;27.30;99.90
18240;DHT22;9244;50.828;4.718;2022-07-29T08:47:44;27.80;99.90
18240;DHT22;9244;50.828;4.718;2022-07-29T08:50:10;28.10;99.90
18240;DHT22;9244;50.828;4.718;2022-07-29T08:52:39;26.80;99.90
18240;DHT22;9244;50.828;4.718;2022-07-29T08:55:06;27.50;99.90
18240;DHT22;9244;50.828;4.718;2022-07-29T08:57:33;26.70;99.90
18240;DHT22;9244;50.828;4.718;2022-07-29T09:00:03;26.80;99.90
18240;DHT22;9244;50.828;4.718;2022-07-29T09:02:34;27.30;99.90
18240;DHT22;9244;50.828;4.718;2022-07-29T09:05:01;27.00;99.90
18240;DHT22;9244;50.828;4.718;2022-07-29T09:07:28;26.80;99.90
18240;DHT22;9244;50.828;4.718;2022-07-29T09:09:54;26.90;99.90
18240;DHT22;9244;50.828;4.718;2022-07-29T09:12:20;26.40;99.90
18240;DHT22;9244;50.828;4.718;2022-07-29T09:14:47;26.30;99.90
18240;DHT22;9244;50.828;4.718;2022-07-29T09:17:14;25.90;99.90
18240;DHT22;9244;50.828;4.718;2022-07-29T09:19:42;25.30;99.90
18240;DHT22;9244;50.828;4.718;2022-07-29T09:22:08;25.30;99.90
18240;DHT22;9244;50.828;4.718;2022-07-29T09:24:39;25.90;99.90
18240;DHT22;9244;50.828;4.718;2022-07-29T09:29:45;25.80;99.90
18240;DHT22;9244;50.828;4.718;2022-07-29T09:32:10;26.10;99.90
18240;DHT22;9244;50.828;4.718;2022-07-29T09:34:37;26.30;99.90
18240;DHT22;9244;50.828;4.718;2022-07-29T09:37:03;26.30;99.90
18240;DHT22;9244;50.828;4.718;2022-07-29T09:39:35;26.10;99.90
18240;DHT22;9244;50.828;4.718;2022-07-29T09:42:05;26.50;99.90
18240;DHT22;9244;50.828;4.718;2022-07-29T09:44:45;26.50;99.90
18240;DHT22;9244;50.828;4.718;2022-07-29T09:47:12;26.20;99.90
18240;DHT22;9244;50.828;4.718;2022-07-29T09:49:55;26.30;99.90
18240;DHT22;9244;50.828;4.718;2022-07-29T09:52:24;26.50;99.90
18240;DHT22;9244;50.828;4.718;2022-07-29T09:54:50;26.30;99.90
18240;DHT22;9244;50.828;4.718;2022-07-29T09:57:27;26.40;99.90
18240;DHT22;9244;50.828;4.718;2022-07-29T10:00:06;26.20;99.90
18240;DHT22;9244;50.828;4.718;2022-07-29T10:02:35;26.30;99.90
18240;DHT22;9244;50.828;4.718;2022-07-29T10:05:03;26.60;99.90
18240;DHT22;9244;50.828;4.718;2022-07-29T10:07:44;26.70;99.90
18240;DHT22;9244;50.828;4.718;2022-07-29T10:10:10;26.80;99.90
18240;DHT22;9244;50.828;4.718;2022-07-29T10:12:49;26.90;99.90
18240;DHT22;9244;50.828;4.718;2022-07-29T10:15:15;26.90;99.90
18240;DHT22;9244;50.828;4.718;2022-07-29T10:17:41;26.80;99.90
18240;DHT22;9244;50.828;4.718;2022-07-29T10:20:08;26.70;99.90
18240;DHT22;9244;50.828;4.718;2022-07-29T10:22:33;26.70;99.90
18240;DHT22;9244;50.828;4.718;2022-07-29T10:24:59;26.70;99.90
18240;DHT22;9244;50.828;4.718;2022-07-29T10:27:25;26.90;99.90
18240;DHT22;9244;50.828;4.718;2022-07-29T10:29:50;26.90;99.90
18240;DHT22;9244;50.828;4.718;2022-07-29T10:32:26;27.10;99.90
18240;DHT22;9244;50.828;4.718;2022-07-29T10:35:15;27.30;99.90
18240;DHT22;9244;50.828;4.718;2022-07-29T10:43:46;26.80;99.90
18240;DHT22;9244;50.828;4.718;2022-07-29T10:46:13;26.90;99.90
18240;DHT22;9244;50.828;4.718;2022-07-29T10:51:57;27.40;99.90
18240;DHT22;9244;50.828;4.718;2022-07-29T10:54:36;27.50;99.90
18240;DHT22;9244;50.828;4.718;2022-07-29T10:59:38;27.90;99.90
18240;DHT22;9244;50.828;4.718;2022-07-29T11:05:05;27.80;99.90
18240;DHT22;9244;50.828;4.718;2022-07-29T11:07:33;28.40;99.90
18240;DHT22;9244;50.828;4.718;2022-07-29T11:10:20;28.40;99.90
18240;DHT22;9244;50.828;4.718;2022-07-29T11:12:46;28.60;99.90
18240;DHT22;9244;50.828;4.718;2022-07-29T11:15:14;28.70;99.50
18240;DHT22;9244;50.828;4.718;2022-07-29T11:20:41;28.50;99.60
18240;DHT22;9244;50.828;4.718;2022-07-29T11:28:39;28.00;99.90
18240;DHT22;9244;50.828;4.718;2022-07-29T11:31:09;28.30;99.90
18240;DHT22;9244;50.828;4.718;2022-07-29T11:33:35;28.80;99.00
18240;DHT22;9244;50.828;4.718;2022-07-29T11:36:13;29.00;99.30
18240;DHT22;9244;50.828;4.718;2022-07-29T11:38:39;28.80;99.30
18240;DHT22;9244;50.828;4.718;2022-07-29T11:43:54;29.00;99.60
18240;DHT22;9244;50.828;4.718;2022-07-29T11:46:45;29.10;99.30
18240;DHT22;9244;50.828;4.718;2022-07-29T11:49:12;29.60;98.80
18240;DHT22;9244;50.828;4.718;2022-07-29T11:51:39;29.30;99.20
18240;DHT22;9244;50.828;4.718;2022-07-29T11:54:08;28.80;98.40
18240;DHT22;9244;50.828;4.718;2022-07-29T11:56:39;28.60;99.60
18240;DHT22;9244;50.828;4.718;2022-07-29T11:59:07;28.40;99.90
18240;DHT22;9244;50.828;4.718;2022-07-29T12:01:35;28.10;99.50
18240;DHT22;9244;50.828;4.718;2022-07-29T12:04:09;27.40;99.90
18240;DHT22;9244;50.828;4.718;2022-07-29T12:06:35;27.40;99.90
18240;DHT22;9244;50.828;4.718;2022-07-29T12:09:07;27.50;99.90
18240;DHT22;9244;50.828;4.718;2022-07-29T12:11:33;27.90;99.90
18240;DHT22;9244;50.828;4.718;2022-07-29T12:13:58;28.40;98.80
18240;DHT22;9244;50.828;4.718;2022-07-29T12:16:37;28.60;99.50
18240;DHT22;9244;50.828;4.718;2022-07-29T12:19:03;28.50;99.60
18240;DHT22;9244;50.828;4.718;2022-07-29T12:21:52;28.90;98.40
18240;DHT22;9244;50.828;4.718;2022-07-29T12:24:18;29.20;98.60
18240;DHT22;9244;50.828;4.718;2022-07-29T12:26:52;29.30;98.60
18240;DHT22;9244;50.828;4.718;2022-07-29T12:29:19;28.90;97.50
18240;DHT22;9244;50.828;4.718;2022-07-29T12:31:45;28.80;97.40
18240;DHT22;9244;50.828;4.718;2022-07-29T12:34:13;28.50;98.70
18240;DHT22;9244;50.828;4.718;2022-07-29T12:36:41;28.60;98.30
18240;DHT22;9244;50.828;4.718;2022-07-29T12:39:08;28.40;98.60
18240;DHT22;9244;50.828;4.718;2022-07-29T12:41:34;28.10;98.90
18240;DHT22;9244;50.828;4.718;2022-07-29T12:44:00;28.40;97.90
18240;DHT22;9244;50.828;4.718;2022-07-29T12:46:26;28.60;98.10
18240;DHT22;9244;50.828;4.718;2022-07-29T12:48:53;29.00;98.90
18240;DHT22;9244;50.828;4.718;2022-07-29T12:51:41;28.90;98.70
18240;DHT22;9244;50.828;4.718;2022-07-29T12:54:10;28.60;99.20
18240;DHT22;9244;50.828;4.718;2022-07-29T12:56:40;27.90;99.60
18240;DHT22;9244;50.828;4.718;2022-07-29T12:59:22;27.90;99.50
18240;DHT22;9244;50.828;4.718;2022-07-29T13:01:50;27.50;98.70
18240;DHT22;9244;50.828;4.718;2022-07-29T13:06:59;28.20;99.00
18240;DHT22;9244;50.828;4.718;2022-07-29T13:09:45;28.30;99.80
18240;DHT22;9244;50.828;4.718;2022-07-29T13:12:14;29.10;98.30
18240;DHT22;9244;50.828;4.718;2022-07-29T13:14:42;29.40;97.70
18240;DHT22;9244;50.828;4.718;2022-07-29T13:17:19;29.30;98.20
18240;DHT22;9244;50.828;4.718;2022-07-29T13:20:14;29.40;98.10
18240;DHT22;9244;50.828;4.718;2022-07-29T13:22:43;29.00;98.50
18240;DHT22;9244;50.828;4.718;2022-07-29T13:25:12;28.60;98.20
18240;DHT22;9244;50.828;4.718;2022-07-29T13:27:38;28.40;98.90
18240;DHT22;9244;50.828;4.718;2022-07-29T13:30:07;28.80;98.30
18240;DHT22;9244;50.828;4.718;2022-07-29T13:32:34;29.00;98.70
18240;DHT22;9244;50.828;4.718;2022-07-29T13:35:02;29.50;97.40
18240;DHT22;9244;50.828;4.718;2022-07-29T13:37:28;29.80;97.70
18240;DHT22;9244;50.828;4.718;2022-07-29T13:39:55;29.80;97.50
18240;DHT22;9244;50.828;4.718;2022-07-29T13:42:22;29.50;98.00
18240;DHT22;9244;50.828;4.718;2022-07-29T13:44:47;29.30;98.50
18240;DHT22;9244;50.828;4.718;2022-07-29T13:47:20;29.20;97.50
18240;DHT22;9244;50.828;4.718;2022-07-29T13:49:46;29.60;98.70
18240;DHT22;9244;50.828;4.718;2022-07-29T13:52:12;29.40;95.40
18240;DHT22;9244;50.828;4.718;2022-07-29T13:54:38;28.90;96.50
18240;DHT22;9244;50.828;4.718;2022-07-29T13:57:04;28.90;97.30
18240;DHT22;9244;50.828;4.718;2022-07-29T13:59:30;28.70;96.90
18240;DHT22;9244;50.828;4.718;2022-07-29T14:01:56;29.00;97.50
18240;DHT22;9244;50.828;4.718;2022-07-29T14:04:22;29.20;96.10
18240;DHT22;9244;50.828;4.718;2022-07-29T14:06:49;29.40;96.80
18240;DHT22;9244;50.828;4.718;2022-07-29T14:09:15;28.70;97.10
18240;DHT22;9244;50.828;4.718;2022-07-29T14:11:41;28.40;96.70
18240;DHT22;9244;50.828;4.718;2022-07-29T14:14:07;28.10;97.50
18240;DHT22;9244;50.828;4.718;2022-07-29T14:16:32;28.20;96.60
18240;DHT22;9244;50.828;4.718;2022-07-29T14:18:58;28.00;97.20
18240;DHT22;9244;50.828;4.718;2022-07-29T14:21:24;27.40;97.60
18240;DHT22;9244;50.828;4.718;2022-07-29T14:23:49;27.00;98.40
18240;DHT22;9244;50.828;4.718;2022-07-29T14:26:15;27.10;97.60
18240;DHT22;9244;50.828;4.718;2022-07-29T14:28:41;27.10;98.90
18240;DHT22;9244;50.828;4.718;2022-07-29T14:31:08;26.80;98.30
18240;DHT22;9244;50.828;4.718;2022-07-29T14:33:33;26.60;98.40
18240;DHT22;9244;50.828;4.718;2022-07-29T14:35:59;26.60;99.60
18240;DHT22;9244;50.828;4.718;2022-07-29T14:38:25;26.40;98.90
18240;DHT22;9244;50.828;4.718;2022-07-29T14:40:50;26.60;99.10
18240;DHT22;9244;50.828;4.718;2022-07-29T14:43:16;26.60;99.20
18240;DHT22;9244;50.828;4.718;2022-07-29T14:45:42;26.80;99.70
18240;DHT22;9244;50.828;4.718;2022-07-29T14:48:08;26.60;99.80
18240;DHT22;9244;50.828;4.718;2022-07-29T14:50:33;26.90;99.90
18240;DHT22;9244;50.828;4.718;2022-07-29T14:53:00;26.90;99.40
18240;DHT22;9244;50.828;4.718;2022-07-29T14:55:26;26.70;98.70
18240;DHT22;9244;50.828;4.718;2022-07-29T14:57:52;26.60;99.50
18240;DHT22;9244;50.828;4.718;2022-07-29T15:00:19;26.80;98.80
18240;DHT22;9244;50.828;4.718;2022-07-29T15:02:46;27.00;99.80
18240;DHT22;9244;50.828;4.718;2022-07-29T15:05:12;27.50;99.70
18240;DHT22;9244;50.828;4.718;2022-07-29T15:07:37;27.50;98.50
18240;DHT22;9244;50.828;4.718;2022-07-29T15:10:03;27.60;99.90
18240;DHT22;9244;50.828;4.718;2022-07-29T15:12:30;28.10;97.60
18240;DHT22;9244;50.828;4.718;2022-07-29T15:14:55;28.10;97.20
18240;DHT22;9244;50.828;4.718;2022-07-29T15:17:21;28.10;97.10
18240;DHT22;9244;50.828;4.718;2022-07-29T15:19:47;28.00;98.10
18240;DHT22;9244;50.828;4.718;2022-07-29T15:22:13;27.50;98.00
18240;DHT22;9244;50.828;4.718;2022-07-29T15:24:38;27.50;98.60
18240;DHT22;9244;50.828;4.718;2022-07-29T15:27:04;27.60;99.20
18240;DHT22;9244;50.828;4.718;2022-07-29T15:29:30;27.40;97.60
18240;DHT22;9244;50.828;4.718;2022-07-29T15:31:55;27.60;99.30
18240;DHT22;9244;50.828;4.718;2022-07-29T15:34:21;27.70;98.50
18240;DHT22;9244;50.828;4.718;2022-07-29T15:36:51;27.70;98.40
18240;DHT22;9244;50.828;4.718;2022-07-29T15:39:17;27.80;98.00
18240;DHT22;9244;50.828;4.718;2022-07-29T15:41:43;27.80;97.90
18240;DHT22;9244;50.828;4.718;2022-07-29T15:44:09;27.90;98.00
18240;DHT22;9244;50.828;4.718;2022-07-29T15:46:34;27.80;97.50
18240;DHT22;9244;50.828;4.718;2022-07-29T15:49:37;27.60;97.60
18240;DHT22;9244;50.828;4.718;2022-07-29T15:52:05;27.70;97.10
18240;DHT22;9244;50.828;4.718;2022-07-29T15:54:33;27.40;96.40
18240;DHT22;9244;50.828;4.718;2022-07-29T15:56:59;27.50;97.70
18240;DHT22;9244;50.828;4.718;2022-07-29T15:59:25;27.50;97.20
18240;DHT22;9244;50.828;4.718;2022-07-29T16:01:51;27.50;96.50
18240;DHT22;9244;50.828;4.718;2022-07-29T16:04:17;27.20;96.50
18240;DHT22;9244;50.828;4.718;2022-07-29T16:06:44;26.50;97.50
18240;DHT22;9244;50.828;4.718;2022-07-29T16:09:10;26.30;98.00
18240;DHT22;9244;50.828;4.718;2022-07-29T16:11:36;26.00;98.20
18240;DHT22;9244;50.828;4.718;2022-07-29T16:14:02;25.80;98.10
18240;DHT22;9244;50.828;4.718;2022-07-29T16:16:27;25.80;98.10
18240;DHT22;9244;50.828;4.718;2022-07-29T16:18:53;25.90;97.80
18240;DHT22;9244;50.828;4.718;2022-07-29T16:21:19;26.10;97.50
18240;DHT22;9244;50.828;4.718;2022-07-29T16:23:44;26.30;97.50
18240;DHT22;9244;50.828;4.718;2022-07-29T16:26:10;26.50;98.00